sensor_id;sensor_type;location;lat;lon;timestamp;P1;durP1;ratioP1;P2;durP2;ratioP2
11203;SDS011;5659;49.408;11.116;2022-10-31T00:00:48;36.70;;;19.23;;
11203;SDS011;5659;49.408;11.116;2022-10-31T00:03:15;35.13;;;18.67;;
11203;SDS011;5659;49.408;11.116;2022-10-31T00:05:42;40.47;;;19.80;;
11203;SDS011;5659;49.408;11.116;2022-10-31T00:08:08;35.20;;;19.30;;
11203;SDS011;5659;49.408;11.116;2022-10-31T00:10:37;38.60;;;18.43;;
11203;SDS011;5659;49.408;11.116;2022-10-31T00:13:02;32.23;;;18.90;;
11203;SDS011;5659;49.408;11.116;2022-10-31T00:15:28;28.57;;;18.33;;
11203;SDS011;5659;49.408;11.116;2022-10-31T00:17:54;44.33;;;20.73;;
11203;SDS011;5659;49.408;11.116;2022-10-31T00:20:20;43.63;;;19.23;;
11203;SDS011;5659;49.408;11.116;2022-10-31T00:22:46;36.43;;;19.23;;
11203;SDS011;5659;49.408;11.116;2022-10-31T00:25:12;31.63;;;18.83;;
11203;SDS011;5659;49.408;11.116;2022-10-31T00:27:38;28.93;;;18.83;;
11203;SDS011;5659;49.408;11.116;2022-10-31T00:30:04;34.43;;;18.47;;
11203;SDS011;5659;49.408;11.116;2022-10-31T00:32:30;42.63;;;19.13;;
11203;SDS011;5659;49.408;11.116;2022-10-31T00:34:56;33.63;;;19.03;;
11203;SDS011;5659;49.408;11.116;2022-10-31T00:37:22;38.23;;;20.23;;
11203;SDS011;5659;49.408;11.116;2022-10-31T00:39:48;45.70;;;19.13;;
11203;SDS011;5659;49.408;11.116;2022-10-31T00:42:14;38.83;;;20.10;;
11203;SDS011;5659;49.408;11.116;2022-10-31T00:44:40;36.33;;;19.87;;
11203;SDS011;5659;49.408;11.116;2022-10-31T00:47:06;37.40;;;19.80;;
11203;SDS011;5659;49.408;11.116;2022-10-31T00:49:32;34.30;;;20.40;;
11203;SDS011;5659;49.408;11.116;2022-10-31T00:51:58;37.73;;;20.30;;
11203;SDS011;5659;49.408;11.116;2022-10-31T00:54:24;40.13;;;19.07;;
11203;SDS011;5659;49.408;11.116;2022-10-31T00:56:50;44.07;;;20.73;;
11203;SDS011;5659;49.408;11.116;2022-10-31T00:59:16;36.07;;;18.67;;
11203;SDS011;5659;49.408;11.116;2022-10-31T01:01:42;34.47;;;21.07;;
11203;SDS011;5659;49.408;11.116;2022-10-31T01:04:08;43.23;;;20.93;;
11203;SDS011;5659;49.408;11.116;2022-10-31T01:06:34;37.53;;;20.70;;
11203;SDS011;5659;49.408;11.116;2022-10-31T01:09:00;36.30;;;21.07;;
11203;SDS011;5659;49.408;11.116;2022-10-31T01:11:26;35.93;;;18.77;;
11203;SDS011;5659;49.408;11.116;2022-10-31T01:13:52;41.40;;;20.33;;
11203;SDS011;5659;49.408;11.116;2022-10-31T01:16:19;36.20;;;20.47;;
11203;SDS011;5659;49.408;11.116;2022-10-31T01:18:46;33.80;;;19.77;;
11203;SDS011;5659;49.408;11.116;2022-10-31T01:21:13;45.33;;;19.07;;
11203;SDS011;5659;49.408;11.116;2022-10-31T01:23:39;33.40;;;19.27;;
11203;SDS011;5659;49.408;11.116;2022-10-31T01:26:10;36.37;;;19.13;;
11203;SDS011;5659;49.408;11.116;2022-10-31T01:28:37;33.60;;;19.03;;
11203;SDS011;5659;49.408;11.116;2022-10-31T01:31:04;35.63;;;18.93;;
11203;SDS011;5659;49.408;11.116;2022-10-31T01:33:30;33.53;;;20.20;;
11203;SDS011;5659;49.408;11.116;2022-10-31T01:35:56;35.47;;;20.00;;
11203;SDS011;5659;49.408;11.116;2022-10-31T01:38:22;39.40;;;19.60;;
11203;SDS011;5659;49.408;11.116;2022-10-31T01:40:48;37.67;;;19.63;;
11203;SDS011;5659;49.408;11.116;2022-10-31T01:43:14;38.27;;;18.47;;
11203;SDS011;5659;49.408;11.116;2022-10-31T01:45:41;31.70;;;19.10;;
11203;SDS011;5659;49.408;11.116;2022-10-31T01:48:11;36.83;;;18.90;;
11203;SDS011;5659;49.408;11.116;2022-10-31T01:50:37;32.93;;;17.93;;
11203;SDS011;5659;49.408;11.116;2022-10-31T01:53:04;37.90;;;19.60;;
11203;SDS011;5659;49.408;11.116;2022-10-31T01:55:32;37.33;;;18.63;;
11203;SDS011;5659;49.408;11.116;2022-10-31T01:58:09;42.37;;;18.93;;
11203;SDS011;5659;49.408;11.116;2022-10-31T02:00:37;30.70;;;19.80;;
11203;SDS011;5659;49.408;11.116;2022-10-31T02:03:03;37.97;;;19.23;;
11203;SDS011;5659;49.408;11.116;2022-10-31T02:05:30;34.67;;;20.63;;
11203;SDS011;5659;49.408;11.116;2022-10-31T02:10:23;41.50;;;18.60;;
11203;SDS011;5659;49.408;11.116;2022-10-31T02:12:51;32.97;;;19.17;;
11203;SDS011;5659;49.408;11.116;2022-10-31T02:15:17;39.37;;;20.83;;
11203;SDS011;5659;49.408;11.116;2022-10-31T02:17:44;40.67;;;20.00;;
11203;SDS011;5659;49.408;11.116;2022-10-31T02:20:12;42.80;;;20.90;;
11203;SDS011;5659;49.408;11.116;2022-10-31T02:30:11;41.17;;;19.87;;
11203;SDS011;5659;49.408;11.116;2022-10-31T02:37:57;39.23;;;21.40;;
11203;SDS011;5659;49.408;11.116;2022-10-31T02:40:30;39.07;;;21.13;;
11203;SDS011;5659;49.408;11.116;2022-10-31T02:43:06;37.37;;;22.13;;
11203;SDS011;5659;49.408;11.116;2022-10-31T02:45:55;29.57;;;19.47;;
11203;SDS011;5659;49.408;11.116;2022-10-31T02:48:25;36.43;;;20.27;;
11203;SDS011;5659;49.408;11.116;2022-10-31T02:50:54;38.57;;;20.30;;
11203;SDS011;5659;49.408;11.116;2022-10-31T02:53:20;42.07;;;19.97;;
11203;SDS011;5659;49.408;11.116;2022-10-31T02:55:48;41.20;;;19.60;;
11203;SDS011;5659;49.408;11.116;2022-10-31T02:58:17;36.33;;;19.50;;
11203;SDS011;5659;49.408;11.116;2022-10-31T03:00:50;38.23;;;20.30;;
11203;SDS011;5659;49.408;11.116;2022-10-31T03:11:05;37.20;;;19.53;;
11203;SDS011;5659;49.408;11.116;2022-10-31T03:16:09;38.63;;;18.53;;
11203;SDS011;5659;49.408;11.116;2022-10-31T03:18:40;40.77;;;20.10;;
11203;SDS011;5659;49.408;11.116;2022-10-31T03:21:11;40.37;;;19.60;;
11203;SDS011;5659;49.408;11.116;2022-10-31T03:23:38;40.80;;;19.37;;
11203;SDS011;5659;49.408;11.116;2022-10-31T03:26:05;44.83;;;20.33;;
11203;SDS011;5659;49.408;11.116;2022-10-31T03:28:34;32.40;;;17.87;;
11203;SDS011;5659;49.408;11.116;2022-10-31T03:31:01;35.40;;;19.20;;
11203;SDS011;5659;49.408;11.116;2022-10-31T03:33:28;45.17;;;20.10;;
11203;SDS011;5659;49.408;11.116;2022-10-31T03:35:57;30.87;;;19.90;;
11203;SDS011;5659;49.408;11.116;2022-10-31T03:38:26;33.87;;;19.77;;
11203;SDS011;5659;49.408;11.116;2022-10-31T03:40:53;36.43;;;19.47;;
11203;SDS011;5659;49.408;11.116;2022-10-31T03:43:26;29.67;;;18.17;;
11203;SDS011;5659;49.408;11.116;2022-10-31T03:45:52;34.43;;;19.30;;
11203;SDS011;5659;49.408;11.116;2022-10-31T03:48:18;31.57;;;19.37;;
11203;SDS011;5659;49.408;11.116;2022-10-31T03:50:48;30.63;;;18.53;;
11203;SDS011;5659;49.408;11.116;2022-10-31T03:53:20;32.20;;;18.57;;
11203;SDS011;5659;49.408;11.116;2022-10-31T03:55:52;28.40;;;17.17;;
11203;SDS011;5659;49.408;11.116;2022-10-31T03:58:21;32.80;;;17.73;;
11203;SDS011;5659;49.408;11.116;2022-10-31T04:00:49;28.07;;;18.33;;
11203;SDS011;5659;49.408;11.116;2022-10-31T04:03:17;30.37;;;18.20;;
11203;SDS011;5659;49.408;11.116;2022-10-31T04:05:45;44.60;;;20.07;;
11203;SDS011;5659;49.408;11.116;2022-10-31T04:08:13;34.47;;;20.63;;
11203;SDS011;5659;49.408;11.116;2022-10-31T04:10:40;46.13;;;20.50;;
11203;SDS011;5659;49.408;11.116;2022-10-31T04:13:10;32.87;;;19.40;;
11203;SDS011;5659;49.408;11.116;2022-10-31T04:15:37;37.80;;;20.03;;
11203;SDS011;5659;49.408;11.116;2022-10-31T04:18:04;37.40;;;19.33;;
11203;SDS011;5659;49.408;11.116;2022-10-31T04:20:34;34.50;;;18.93;;
11203;SDS011;5659;49.408;11.116;2022-10-31T04:23:01;31.60;;;18.30;;
11203;SDS011;5659;49.408;11.116;2022-10-31T04:25:27;38.90;;;20.13;;
11203;SDS011;5659;49.408;11.116;2022-10-31T04:27:53;32.33;;;18.80;;
11203;SDS011;5659;49.408;11.116;2022-10-31T04:30:19;33.97;;;19.53;;
11203;SDS011;5659;49.408;11.116;2022-10-31T04:32:45;34.40;;;20.07;;
11203;SDS011;5659;49.408;11.116;2022-10-31T04:35:11;39.83;;;20.33;;
11203;SDS011;5659;49.408;11.116;2022-10-31T04:37:37;33.33;;;19.20;;
11203;SDS011;5659;49.408;11.116;2022-10-31T04:40:03;36.37;;;19.57;;
11203;SDS011;5659;49.408;11.116;2022-10-31T04:42:30;35.93;;;20.37;;
11203;SDS011;5659;49.408;11.116;2022-10-31T04:44:55;37.50;;;20.13;;
11203;SDS011;5659;49.408;11.116;2022-10-31T04:47:21;41.00;;;21.07;;
11203;SDS011;5659;49.408;11.116;2022-10-31T04:49:47;33.40;;;19.30;;
11203;SDS011;5659;49.408;11.116;2022-10-31T04:52:13;33.37;;;19.77;;
11203;SDS011;5659;49.408;11.116;2022-10-31T04:54:39;31.60;;;19.90;;
11203;SDS011;5659;49.408;11.116;2022-10-31T04:57:05;39.93;;;20.83;;
11203;SDS011;5659;49.408;11.116;2022-10-31T04:59:31;33.90;;;21.13;;
11203;SDS011;5659;49.408;11.116;2022-10-31T05:01:57;40.93;;;21.00;;
11203;SDS011;5659;49.408;11.116;2022-10-31T05:04:23;30.50;;;19.00;;
11203;SDS011;5659;49.408;11.116;2022-10-31T05:06:49;31.30;;;18.67;;
11203;SDS011;5659;49.408;11.116;2022-10-31T05:09:15;32.33;;;19.57;;
11203;SDS011;5659;49.408;11.116;2022-10-31T05:11:41;34.03;;;19.87;;
11203;SDS011;5659;49.408;11.116;2022-10-31T05:14:07;32.37;;;18.77;;
11203;SDS011;5659;49.408;11.116;2022-10-31T05:16:33;32.23;;;18.63;;
11203;SDS011;5659;49.408;11.116;2022-10-31T05:18:59;35.93;;;20.33;;
11203;SDS011;5659;49.408;11.116;2022-10-31T05:21:25;30.50;;;18.50;;
11203;SDS011;5659;49.408;11.116;2022-10-31T05:23:51;36.47;;;19.43;;
11203;SDS011;5659;49.408;11.116;2022-10-31T05:26:17;33.17;;;18.70;;
11203;SDS011;5659;49.408;11.116;2022-10-31T05:28:43;36.83;;;18.77;;
11203;SDS011;5659;49.408;11.116;2022-10-31T05:31:09;44.87;;;20.00;;
11203;SDS011;5659;49.408;11.116;2022-10-31T05:33:35;34.27;;;19.27;;
11203;SDS011;5659;49.408;11.116;2022-10-31T05:36:01;27.93;;;17.23;;
11203;SDS011;5659;49.408;11.116;2022-10-31T05:38:27;30.10;;;17.93;;
11203;SDS011;5659;49.408;11.116;2022-10-31T05:40:56;42.77;;;18.93;;
11203;SDS011;5659;49.408;11.116;2022-10-31T05:43:23;32.07;;;18.43;;
11203;SDS011;5659;49.408;11.116;2022-10-31T05:45:52;35.13;;;18.13;;
11203;SDS011;5659;49.408;11.116;2022-10-31T05:48:18;32.53;;;18.33;;
11203;SDS011;5659;49.408;11.116;2022-10-31T05:50:44;27.13;;;17.77;;
11203;SDS011;5659;49.408;11.116;2022-10-31T05:53:10;28.20;;;17.53;;
11203;SDS011;5659;49.408;11.116;2022-10-31T05:55:36;33.23;;;18.73;;
11203;SDS011;5659;49.408;11.116;2022-10-31T05:58:02;31.60;;;17.73;;
11203;SDS011;5659;49.408;11.116;2022-10-31T06:00:28;36.53;;;21.40;;
11203;SDS011;5659;49.408;11.116;2022-10-31T06:03:01;43.10;;;19.23;;
11203;SDS011;5659;49.408;11.116;2022-10-31T06:05:27;34.27;;;19.87;;
11203;SDS011;5659;49.408;11.116;2022-10-31T06:07:53;31.83;;;18.93;;
11203;SDS011;5659;49.408;11.116;2022-10-31T06:10:19;33.70;;;19.60;;
11203;SDS011;5659;49.408;11.116;2022-10-31T06:12:46;44.73;;;20.67;;
11203;SDS011;5659;49.408;11.116;2022-10-31T06:15:12;26.73;;;18.80;;
11203;SDS011;5659;49.408;11.116;2022-10-31T06:17:38;34.10;;;19.33;;
11203;SDS011;5659;49.408;11.116;2022-10-31T06:20:05;41.97;;;20.93;;
11203;SDS011;5659;49.408;11.116;2022-10-31T06:22:31;33.97;;;19.27;;
11203;SDS011;5659;49.408;11.116;2022-10-31T06:24:57;30.13;;;18.87;;
11203;SDS011;5659;49.408;11.116;2022-10-31T06:27:23;33.87;;;19.63;;
11203;SDS011;5659;49.408;11.116;2022-10-31T06:29:49;32.80;;;19.53;;
11203;SDS011;5659;49.408;11.116;2022-10-31T06:32:15;36.93;;;20.63;;
11203;SDS011;5659;49.408;11.116;2022-10-31T06:34:42;32.67;;;20.67;;
11203;SDS011;5659;49.408;11.116;2022-10-31T06:37:08;32.10;;;20.13;;
11203;SDS011;5659;49.408;11.116;2022-10-31T06:39:35;35.20;;;21.30;;
11203;SDS011;5659;49.408;11.116;2022-10-31T06:42:01;34.73;;;20.27;;
11203;SDS011;5659;49.408;11.116;2022-10-31T06:44:27;32.47;;;20.00;;
11203;SDS011;5659;49.408;11.116;2022-10-31T06:46:53;43.13;;;23.53;;
11203;SDS011;5659;49.408;11.116;2022-10-31T06:49:19;32.23;;;22.13;;
11203;SDS011;5659;49.408;11.116;2022-10-31T06:51:48;37.93;;;20.60;;
11203;SDS011;5659;49.408;11.116;2022-10-31T06:54:14;39.93;;;22.00;;
11203;SDS011;5659;49.408;11.116;2022-10-31T06:56:40;32.10;;;21.07;;
11203;SDS011;5659;49.408;11.116;2022-10-31T06:59:06;34.33;;;21.73;;
11203;SDS011;5659;49.408;11.116;2022-10-31T07:01:32;30.77;;;20.87;;
11203;SDS011;5659;49.408;11.116;2022-10-31T07:03:58;38.33;;;22.03;;
11203;SDS011;5659;49.408;11.116;2022-10-31T07:06:24;33.13;;;21.27;;
11203;SDS011;5659;49.408;11.116;2022-10-31T07:08:50;36.70;;;21.73;;
11203;SDS011;5659;49.408;11.116;2022-10-31T07:11:16;34.20;;;22.70;;
11203;SDS011;5659;49.408;11.116;2022-10-31T07:13:42;38.67;;;22.07;;
11203;SDS011;5659;49.408;11.116;2022-10-31T07:16:08;37.43;;;23.47;;
11203;SDS011;5659;49.408;11.116;2022-10-31T07:18:38;38.37;;;23.87;;
11203;SDS011;5659;49.408;11.116;2022-10-31T07:21:04;42.73;;;23.67;;
11203;SDS011;5659;49.408;11.116;2022-10-31T07:23:31;35.43;;;22.33;;
11203;SDS011;5659;49.408;11.116;2022-10-31T07:25:57;42.77;;;23.23;;
11203;SDS011;5659;49.408;11.116;2022-10-31T07:28:24;40.07;;;22.20;;
11203;SDS011;5659;49.408;11.116;2022-10-31T07:30:53;37.63;;;21.50;;
11203;SDS011;5659;49.408;11.116;2022-10-31T07:33:20;37.00;;;21.83;;
11203;SDS011;5659;49.408;11.116;2022-10-31T07:35:46;39.00;;;21.40;;
11203;SDS011;5659;49.408;11.116;2022-10-31T07:38:13;34.77;;;21.53;;
11203;SDS011;5659;49.408;11.116;2022-10-31T07:40:39;33.40;;;21.47;;
11203;SDS011;5659;49.408;11.116;2022-10-31T07:43:05;40.33;;;22.00;;
11203;SDS011;5659;49.408;11.116;2022-10-31T07:45:31;43.43;;;22.13;;
11203;SDS011;5659;49.408;11.116;2022-10-31T07:47:57;33.93;;;21.90;;
11203;SDS011;5659;49.408;11.116;2022-10-31T07:50:27;28.53;;;20.67;;
11203;SDS011;5659;49.408;11.116;2022-10-31T07:55:28;40.20;;;21.13;;
11203;SDS011;5659;49.408;11.116;2022-10-31T07:58:05;47.80;;;21.20;;
11203;SDS011;5659;49.408;11.116;2022-10-31T08:00:32;37.73;;;21.60;;
11203;SDS011;5659;49.408;11.116;2022-10-31T08:03:02;36.00;;;22.67;;
11203;SDS011;5659;49.408;11.116;2022-10-31T08:05:29;35.13;;;19.77;;
11203;SDS011;5659;49.408;11.116;2022-10-31T08:07:55;30.83;;;20.93;;
11203;SDS011;5659;49.408;11.116;2022-10-31T08:10:21;32.17;;;21.37;;
11203;SDS011;5659;49.408;11.116;2022-10-31T08:12:54;38.35;;;20.40;;
11203;SDS011;5659;49.408;11.116;2022-10-31T08:15:20;36.72;;;20.63;;
11203;SDS011;5659;49.408;11.116;2022-10-31T08:17:46;35.75;;;21.67;;
11203;SDS011;5659;49.408;11.116;2022-10-31T08:20:12;37.60;;;20.67;;
11203;SDS011;5659;49.408;11.116;2022-10-31T08:22:38;32.73;;;20.67;;
11203;SDS011;5659;49.408;11.116;2022-10-31T08:25:04;38.30;;;20.52;;
11203;SDS011;5659;49.408;11.116;2022-10-31T08:27:30;36.33;;;19.15;;
11203;SDS011;5659;49.408;11.116;2022-10-31T08:29:56;37.08;;;19.77;;
11203;SDS011;5659;49.408;11.116;2022-10-31T08:32:23;32.30;;;18.95;;
11203;SDS011;5659;49.408;11.116;2022-10-31T08:34:49;31.80;;;19.65;;
11203;SDS011;5659;49.408;11.116;2022-10-31T08:37:15;33.33;;;19.80;;
11203;SDS011;5659;49.408;11.116;2022-10-31T08:39:45;30.08;;;19.02;;
11203;SDS011;5659;49.408;11.116;2022-10-31T08:42:11;30.48;;;19.65;;
11203;SDS011;5659;49.408;11.116;2022-10-31T08:44:37;34.13;;;21.35;;
11203;SDS011;5659;49.408;11.116;2022-10-31T08:47:03;27.63;;;19.38;;
11203;SDS011;5659;49.408;11.116;2022-10-31T08:49:29;35.22;;;18.83;;
11203;SDS011;5659;49.408;11.116;2022-10-31T08:51:55;25.17;;;18.52;;
11203;SDS011;5659;49.408;11.116;2022-10-31T08:54:21;33.58;;;18.60;;
11203;SDS011;5659;49.408;11.116;2022-10-31T08:56:47;36.10;;;18.63;;
11203;SDS011;5659;49.408;11.116;2022-10-31T08:59:13;27.30;;;16.83;;
11203;SDS011;5659;49.408;11.116;2022-10-31T09:01:39;28.67;;;17.08;;
11203;SDS011;5659;49.408;11.116;2022-10-31T09:04:05;32.45;;;17.05;;
11203;SDS011;5659;49.408;11.116;2022-10-31T09:06:31;26.92;;;17.00;;
11203;SDS011;5659;49.408;11.116;2022-10-31T09:08:57;24.67;;;15.30;;
11203;SDS011;5659;49.408;11.116;2022-10-31T09:11:23;27.80;;;14.65;;
11203;SDS011;5659;49.408;11.116;2022-10-31T09:13:49;28.95;;;14.98;;
11203;SDS011;5659;49.408;11.116;2022-10-31T09:16:15;20.33;;;14.20;;
11203;SDS011;5659;49.408;11.116;2022-10-31T09:18:41;20.08;;;13.75;;
11203;SDS011;5659;49.408;11.116;2022-10-31T09:21:07;19.02;;;13.65;;
11203;SDS011;5659;49.408;11.116;2022-10-31T09:23:33;19.92;;;12.02;;
11203;SDS011;5659;49.408;11.116;2022-10-31T09:25:59;17.83;;;11.63;;
11203;SDS011;5659;49.408;11.116;2022-10-31T09:28:26;24.42;;;11.88;;
11203;SDS011;5659;49.408;11.116;2022-10-31T09:30:52;28.52;;;12.98;;
11203;SDS011;5659;49.408;11.116;2022-10-31T09:33:19;17.38;;;10.45;;
11203;SDS011;5659;49.408;11.116;2022-10-31T09:35:45;15.50;;;9.90;;
11203;SDS011;5659;49.408;11.116;2022-10-31T09:38:12;16.60;;;9.52;;
11203;SDS011;5659;49.408;11.116;2022-10-31T09:40:46;16.95;;;8.38;;
11203;SDS011;5659;49.408;11.116;2022-10-31T09:51:00;17.13;;;6.38;;
11203;SDS011;5659;49.408;11.116;2022-10-31T09:55:55;13.98;;;6.22;;
11203;SDS011;5659;49.408;11.116;2022-10-31T09:58:23;14.77;;;5.57;;
11203;SDS011;5659;49.408;11.116;2022-10-31T10:00:50;19.23;;;6.10;;
11203;SDS011;5659;49.408;11.116;2022-10-31T10:08:28;12.60;;;5.82;;
11203;SDS011;5659;49.408;11.116;2022-10-31T10:13:31;20.48;;;5.65;;
11203;SDS011;5659;49.408;11.116;2022-10-31T10:18:40;12.50;;;5.68;;
11203;SDS011;5659;49.408;11.116;2022-10-31T10:26:19;11.93;;;4.72;;
11203;SDS011;5659;49.408;11.116;2022-10-31T10:28:56;11.65;;;4.95;;
11203;SDS011;5659;49.408;11.116;2022-10-31T10:31:30;12.90;;;5.07;;
11203;SDS011;5659;49.408;11.116;2022-10-31T10:34:01;16.77;;;5.28;;
11203;SDS011;5659;49.408;11.116;2022-10-31T10:36:41;11.25;;;4.60;;
11203;SDS011;5659;49.408;11.116;2022-10-31T10:39:14;10.82;;;5.40;;
11203;SDS011;5659;49.408;11.116;2022-10-31T10:41:42;11.65;;;5.13;;
11203;SDS011;5659;49.408;11.116;2022-10-31T10:44:10;14.30;;;5.45;;
11203;SDS011;5659;49.408;11.116;2022-10-31T10:46:40;17.88;;;5.95;;
11203;SDS011;5659;49.408;11.116;2022-10-31T10:49:58;14.27;;;5.65;;
11203;SDS011;5659;49.408;11.116;2022-10-31T10:55:10;16.48;;;5.68;;
11203;SDS011;5659;49.408;11.116;2022-10-31T10:57:49;13.40;;;5.70;;
11203;SDS011;5659;49.408;11.116;2022-10-31T11:00:20;17.20;;;5.82;;
11203;SDS011;5659;49.408;11.116;2022-10-31T11:02:47;11.75;;;5.40;;
11203;SDS011;5659;49.408;11.116;2022-10-31T11:05:35;17.98;;;4.75;;
11203;SDS011;5659;49.408;11.116;2022-10-31T11:07:59;13.95;;;5.38;;
11203;SDS011;5659;49.408;11.116;2022-10-31T11:10:25;14.00;;;5.25;;
11203;SDS011;5659;49.408;11.116;2022-10-31T11:13:03;16.00;;;5.45;;
11203;SDS011;5659;49.408;11.116;2022-10-31T11:15:30;17.00;;;5.32;;
11203;SDS011;5659;49.408;11.116;2022-10-31T11:17:57;11.90;;;5.05;;
11203;SDS011;5659;49.408;11.116;2022-10-31T11:20:25;14.65;;;4.90;;
11203;SDS011;5659;49.408;11.116;2022-10-31T11:23:00;18.35;;;5.15;;
11203;SDS011;5659;49.408;11.116;2022-10-31T11:25:26;14.82;;;5.28;;
11203;SDS011;5659;49.408;11.116;2022-10-31T11:28:02;12.02;;;5.00;;
11203;SDS011;5659;49.408;11.116;2022-10-31T11:30:28;16.20;;;5.18;;
11203;SDS011;5659;49.408;11.116;2022-10-31T11:32:55;14.10;;;5.25;;
11203;SDS011;5659;49.408;11.116;2022-10-31T11:35:22;10.10;;;5.03;;
11203;SDS011;5659;49.408;11.116;2022-10-31T11:37:49;15.32;;;5.57;;
11203;SDS011;5659;49.408;11.116;2022-10-31T11:40:17;23.05;;;5.57;;
11203;SDS011;5659;49.408;11.116;2022-10-31T11:42:44;11.63;;;5.55;;
11203;SDS011;5659;49.408;11.116;2022-10-31T11:45:15;15.00;;;5.63;;
11203;SDS011;5659;49.408;11.116;2022-10-31T11:47:41;13.10;;;5.47;;
11203;SDS011;5659;49.408;11.116;2022-10-31T11:50:09;12.55;;;5.20;;
11203;SDS011;5659;49.408;11.116;2022-10-31T11:52:36;21.55;;;5.57;;
11203;SDS011;5659;49.408;11.116;2022-10-31T11:55:14;16.67;;;5.47;;
11203;SDS011;5659;49.408;11.116;2022-10-31T11:57:44;15.23;;;5.38;;
11203;SDS011;5659;49.408;11.116;2022-10-31T12:00:27;14.43;;;5.10;;
11203;SDS011;5659;49.408;11.116;2022-10-31T12:05:39;13.70;;;5.10;;
11203;SDS011;5659;49.408;11.116;2022-10-31T12:08:08;15.27;;;5.03;;
11203;SDS011;5659;49.408;11.116;2022-10-31T12:10:42;11.52;;;4.68;;
11203;SDS011;5659;49.408;11.116;2022-10-31T12:13:18;13.90;;;4.63;;
11203;SDS011;5659;49.408;11.116;2022-10-31T12:15:52;14.75;;;4.53;;
11203;SDS011;5659;49.408;11.116;2022-10-31T12:23:57;12.77;;;4.78;;
11203;SDS011;5659;49.408;11.116;2022-10-31T12:32:09;11.85;;;4.63;;
11203;SDS011;5659;49.408;11.116;2022-10-31T12:39:46;13.55;;;4.32;;
11203;SDS011;5659;49.408;11.116;2022-10-31T12:42:21;15.05;;;4.85;;
11203;SDS011;5659;49.408;11.116;2022-10-31T12:50:08;15.75;;;4.45;;
11203;SDS011;5659;49.408;11.116;2022-10-31T12:52:43;14.40;;;4.45;;
11203;SDS011;5659;49.408;11.116;2022-10-31T12:55:20;18.08;;;5.05;;
11203;SDS011;5659;49.408;11.116;2022-10-31T12:57:54;11.00;;;4.30;;
11203;SDS011;5659;49.408;11.116;2022-10-31T13:00:22;19.38;;;4.47;;
11203;SDS011;5659;49.408;11.116;2022-10-31T13:05:21;13.75;;;4.82;;
11203;SDS011;5659;49.408;11.116;2022-10-31T13:07:58;13.20;;;5.32;;
11203;SDS011;5659;49.408;11.116;2022-10-31T13:10:27;9.90;;;5.18;;
11203;SDS011;5659;49.408;11.116;2022-10-31T13:12:57;11.45;;;5.00;;
11203;SDS011;5659;49.408;11.116;2022-10-31T13:15:25;19.75;;;5.75;;
11203;SDS011;5659;49.408;11.116;2022-10-31T13:17:56;17.20;;;5.70;;
11203;SDS011;5659;49.408;11.116;2022-10-31T13:22:50;14.43;;;5.63;;
11203;SDS011;5659;49.408;11.116;2022-10-31T13:25:24;18.73;;;6.20;;
11203;SDS011;5659;49.408;11.116;2022-10-31T13:28:01;16.75;;;6.80;;
11203;SDS011;5659;49.408;11.116;2022-10-31T13:30:29;18.90;;;6.95;;
11203;SDS011;5659;49.408;11.116;2022-10-31T13:33:05;17.15;;;6.60;;
11203;SDS011;5659;49.408;11.116;2022-10-31T13:40:44;15.02;;;6.75;;
11203;SDS011;5659;49.408;11.116;2022-10-31T13:43:20;20.52;;;7.20;;
11203;SDS011;5659;49.408;11.116;2022-10-31T13:45:52;16.23;;;6.43;;
11203;SDS011;5659;49.408;11.116;2022-10-31T13:50:55;16.48;;;6.32;;
11203;SDS011;5659;49.408;11.116;2022-10-31T13:53:21;17.90;;;6.88;;
11203;SDS011;5659;49.408;11.116;2022-10-31T13:55:49;12.63;;;6.45;;
11203;SDS011;5659;49.408;11.116;2022-10-31T13:58:22;18.67;;;7.82;;
11203;SDS011;5659;49.408;11.116;2022-10-31T14:03:24;26.38;;;7.85;;
11203;SDS011;5659;49.408;11.116;2022-10-31T14:05:54;22.92;;;8.35;;
11203;SDS011;5659;49.408;11.116;2022-10-31T14:08:21;15.48;;;8.18;;
11203;SDS011;5659;49.408;11.116;2022-10-31T14:10:52;16.27;;;7.90;;
11203;SDS011;5659;49.408;11.116;2022-10-31T14:13:30;19.58;;;7.53;;
11203;SDS011;5659;49.408;11.116;2022-10-31T14:16:01;25.38;;;7.65;;
11203;SDS011;5659;49.408;11.116;2022-10-31T14:18:37;24.13;;;8.20;;
11203;SDS011;5659;49.408;11.116;2022-10-31T14:23:59;13.05;;;7.10;;
11203;SDS011;5659;49.408;11.116;2022-10-31T14:28:55;18.92;;;8.18;;
11203;SDS011;5659;49.408;11.116;2022-10-31T14:33:54;20.85;;;7.22;;
11203;SDS011;5659;49.408;11.116;2022-10-31T14:37:03;22.63;;;7.30;;
11203;SDS011;5659;49.408;11.116;2022-10-31T14:47:02;13.45;;;6.88;;
11203;SDS011;5659;49.408;11.116;2022-10-31T14:49:30;15.88;;;7.30;;
11203;SDS011;5659;49.408;11.116;2022-10-31T14:51:58;19.73;;;7.95;;
11203;SDS011;5659;49.408;11.116;2022-10-31T14:54:29;19.45;;;7.88;;
11203;SDS011;5659;49.408;11.116;2022-10-31T14:56:57;16.15;;;7.60;;
11203;SDS011;5659;49.408;11.116;2022-10-31T14:59:26;15.68;;;7.68;;
11203;SDS011;5659;49.408;11.116;2022-10-31T15:02:00;18.05;;;8.30;;
11203;SDS011;5659;49.408;11.116;2022-10-31T15:04:27;21.30;;;7.65;;
11203;SDS011;5659;49.408;11.116;2022-10-31T15:07:02;17.98;;;7.97;;
11203;SDS011;5659;49.408;11.116;2022-10-31T15:09:31;22.08;;;7.65;;
11203;SDS011;5659;49.408;11.116;2022-10-31T15:11:58;25.65;;;8.00;;
11203;SDS011;5659;49.408;11.116;2022-10-31T15:14:28;17.63;;;7.72;;
11203;SDS011;5659;49.408;11.116;2022-10-31T15:16:58;16.73;;;8.27;;
11203;SDS011;5659;49.408;11.116;2022-10-31T15:19:25;18.38;;;9.43;;
11203;SDS011;5659;49.408;11.116;2022-10-31T15:21:52;23.63;;;7.32;;
11203;SDS011;5659;49.408;11.116;2022-10-31T15:24:19;25.77;;;8.65;;
11203;SDS011;5659;49.408;11.116;2022-10-31T15:26:47;20.95;;;7.55;;
11203;SDS011;5659;49.408;11.116;2022-10-31T15:29:15;26.65;;;9.88;;
11203;SDS011;5659;49.408;11.116;2022-10-31T15:31:54;66.15;;;25.25;;
11203;SDS011;5659;49.408;11.116;2022-10-31T15:34:39;41.17;;;16.80;;
11203;SDS011;5659;49.408;11.116;2022-10-31T15:37:12;28.48;;;11.70;;
11203;SDS011;5659;49.408;11.116;2022-10-31T15:39:41;29.13;;;8.38;;
11203;SDS011;5659;49.408;11.116;2022-10-31T15:42:21;20.27;;;8.00;;
11203;SDS011;5659;49.408;11.116;2022-10-31T15:44:49;13.77;;;6.28;;
11203;SDS011;5659;49.408;11.116;2022-10-31T15:47:19;19.33;;;6.45;;
11203;SDS011;5659;49.408;11.116;2022-10-31T15:49:50;15.23;;;6.45;;
11203;SDS011;5659;49.408;11.116;2022-10-31T15:52:19;15.63;;;7.60;;
11203;SDS011;5659;49.408;11.116;2022-10-31T15:54:50;23.10;;;7.13;;
11203;SDS011;5659;49.408;11.116;2022-10-31T15:57:17;16.17;;;7.00;;
11203;SDS011;5659;49.408;11.116;2022-10-31T15:59:45;15.57;;;6.47;;
11203;SDS011;5659;49.408;11.116;2022-10-31T16:02:12;14.55;;;6.38;;
11203;SDS011;5659;49.408;11.116;2022-10-31T16:04:47;14.90;;;6.70;;
11203;SDS011;5659;49.408;11.116;2022-10-31T16:07:14;17.63;;;6.13;;
11203;SDS011;5659;49.408;11.116;2022-10-31T16:09:50;13.25;;;6.28;;
11203;SDS011;5659;49.408;11.116;2022-10-31T16:12:17;18.27;;;6.28;;
11203;SDS011;5659;49.408;11.116;2022-10-31T16:14:43;11.18;;;6.10;;
11203;SDS011;5659;49.408;11.116;2022-10-31T16:17:16;18.52;;;6.53;;
11203;SDS011;5659;49.408;11.116;2022-10-31T16:19:50;14.63;;;5.53;;
11203;SDS011;5659;49.408;11.116;2022-10-31T16:22:21;17.45;;;6.00;;
11203;SDS011;5659;49.408;11.116;2022-10-31T16:24:49;15.70;;;6.25;;